Zenith Leader — 2ACU6 — position and weather

sailwx.info

Track history (hours):
 
Tides and Currents Weather Stations Pressure Air Temp Water Temp Dewpoint Dewpoint Depression Visibility Wind Speed Wind Dir Waves Ship Positions

Zenith Leader

Last reported at 2016-Jul-04 02:25 UTC. Time now 2016-Jul-30 11:10 UTC.
Position N 08°29' W 079°27'.
Warning: this ship's position is 26 days out of date.

Length 200 m; draft 8.8 m.

Type: Cargo ship. MMSI: 235058697.

Date/timePositionNaut miles runAvg speedWind from/ knotsBaromVisibWave heightAir tempDewpointWater temp
2016-Jul-04 02:25N 08°29' W 079°27'1616.8
2016-Jul-04 01:29N 08°44' W 079°28'1212.2
2016-Jul-04 00:31N 08°55' W 079°33'5 5.1
2016-Jul-03 23:28N 08°60' W 079°35'2 1.6
2016-Jul-03 22:17N 09°01' W 079°37'1 1.7
2016-Jul-03 21:27N 09°02' W 079°38'6 5.7
2016-Jul-03 20:23N 09°07' W 079°42'5 5.9
2016-Jul-03 19:33N 09°07' W 079°47'9 9.3
2016-Jul-03 18:33N 09°12' W 079°54'3 3.3
2016-Jul-03 17:33N 09°15' W 079°55'0 0.0
2016-Jul-03 16:33N 09°15' W 079°55'0 0.0
2016-Jul-03 15:32N 09°15' W 079°55'0 0.0
2016-Jul-03 14:33N 09°15' W 079°55'0 0.0
2016-Jul-03 13:33N 09°15' W 079°55'0 0.0
2016-Jul-03 12:33N 09°15' W 079°55'0 0.0
2016-Jul-03 11:34N 09°15' W 079°55'0 0.0
2016-Jul-03 10:33N 09°15' W 079°55'1 1.0
2016-Jul-03 09:33N 09°16' W 079°55'1 0.6
2016-Jul-03 08:33N 09°17' W 079°55'1 1.2
2016-Jul-03 07:33N 09°18' W 079°55'6 5.9
2016-Jul-03 06:34N 09°24' W 079°55'7 7.0
2016-Jul-03 05:33N 09°31' W 079°53'1 1.4
2016-Jul-03 04:33N 09°32' W 079°53'2 2.4
2016-Jul-03 03:33N 09°30' W 079°54'7 7.3
2016-Jul-03 02:34N 09°22' W 079°54'1 0.5
2016-Jul-03 01:32N 09°22' W 079°53'0 0.0
2016-Jul-03 00:32N 09°22' W 079°53'0 0.0
2016-Jul-02 23:32N 09°22' W 079°53'0 0.0
2016-Jul-02 22:32N 09°22' W 079°53'0 0.0
2016-Jul-02 21:32N 09°22' W 079°53'0 0.0
2016-Jul-02 20:32N 09°22' W 079°53'0 0.0
2016-Jul-02 19:32N 09°22' W 079°53'0 0.0
2016-Jul-02 18:32N 09°22' W 079°53'0 0.0
2016-Jul-02 17:32N 09°22' W 079°53'0 0.0
2016-Jul-02 16:32N 09°22' W 079°53'0 0.0
2016-Jul-02 15:32N 09°22' W 079°53'0 0.0
2016-Jul-02 14:33N 09°22' W 079°53'2 1.9
2016-Jul-02 13:33N 09°24' W 079°54'4 4.0
2016-Jul-02 12:34N 09°28' W 079°53'8 8.2
2016-Jul-02 11:33N 09°36' W 079°52'1413.8
2016-Jul-02 10:33N 09°47' W 079°43'1414.0
2016-Jul-02 09:33N 09°49' W 079°29'1514.3
2016-Jul-02 08:32N 09°51' W 079°15'  
2016-Jun-27 00:07N 28°24' W 093°10'9914.9
2016-Jun-26 17:26N 29°21' W 094°44'910.1
2016-Jun-26 16:32N 29°27' W 094°51'1211.7
2016-Jun-26 15:31N 29°38' W 094°58'8 8.3
2016-Jun-26 14:33N 29°44' W 095°03'6 6.0
2016-Jun-26 13:33N 29°45' W 095°10'5 5.4
2016-Jun-26 12:32N 29°44' W 095°16'1 0.1
2016-Jun-26 08:08N 29°44' W 095°17'0 0.0
2016-Jun-26 06:14N 29°44' W 095°17'0 0.0
2016-Jun-26 05:32N 29°44' W 095°17'0 0.0
2016-Jun-25 18:32N 29°44' W 095°17'0 0.0
2016-Jun-25 17:14N 29°44' W 095°17'0 0.0
2016-Jun-25 16:14N 29°44' W 095°17'1 0.0
2016-Jun-24 23:21N 29°43' W 095°16'4 5.0
2016-Jun-24 22:31N 29°45' W 095°11'6 5.9
2016-Jun-24 21:33N 29°46' W 095°05'8 8.1
2016-Jun-24 20:33N 29°40' W 094°58'1312.5
2016-Jun-24 19:33N 29°29' W 094°52'13011.8
2016-Jun-24 08:32N 28°12' W 092°53'4016.1
2016-Jun-24 06:04N 27°41' W 092°24'  
Track history (hours):
 
Tides and Currents Weather Stations Pressure Air Temp Water Temp Dewpoint Dewpoint Depression Visibility Wind Speed Wind Dir Waves Ship Positions

Zenith Leader

Last reported at 2016-Jul-04 02:25 UTC. Time now 2016-Jul-30 11:10 UTC.
Position N 08°29' W 079°27'.
Warning: this ship's position is 26 days out of date.

Length 200 m; draft 8.8 m.

Type: Cargo ship. MMSI: 235058697.

Date/timePositionNaut miles runAvg speedWind from/ knotsBaromVisibWave heightAir tempDewpointWater temp
2016-Jul-04 02:25N 08°29' W 079°27'1616.8
2016-Jul-04 01:29N 08°44' W 079°28'1212.2
2016-Jul-04 00:31N 08°55' W 079°33'5 5.1
2016-Jul-03 23:28N 08°60' W 079°35'2 1.6
2016-Jul-03 22:17N 09°01' W 079°37'1 1.7
2016-Jul-03 21:27N 09°02' W 079°38'6 5.7
2016-Jul-03 20:23N 09°07' W 079°42'5 5.9
2016-Jul-03 19:33N 09°07' W 079°47'9 9.3
2016-Jul-03 18:33N 09°12' W 079°54'3 3.3
2016-Jul-03 17:33N 09°15' W 079°55'0 0.0
2016-Jul-03 16:33N 09°15' W 079°55'0 0.0
2016-Jul-03 15:32N 09°15' W 079°55'0 0.0
2016-Jul-03 14:33N 09°15' W 079°55'0 0.0
2016-Jul-03 13:33N 09°15' W 079°55'0 0.0
2016-Jul-03 12:33N 09°15' W 079°55'0 0.0
2016-Jul-03 11:34N 09°15' W 079°55'0 0.0
2016-Jul-03 10:33N 09°15' W 079°55'1 1.0
2016-Jul-03 09:33N 09°16' W 079°55'1 0.6
2016-Jul-03 08:33N 09°17' W 079°55'1 1.2
2016-Jul-03 07:33N 09°18' W 079°55'6 5.9
2016-Jul-03 06:34N 09°24' W 079°55'7 7.0
2016-Jul-03 05:33N 09°31' W 079°53'1 1.4
2016-Jul-03 04:33N 09°32' W 079°53'2 2.4
2016-Jul-03 03:33N 09°30' W 079°54'7 7.3
2016-Jul-03 02:34N 09°22' W 079°54'1 0.5
2016-Jul-03 01:32N 09°22' W 079°53'0 0.0
2016-Jul-03 00:32N 09°22' W 079°53'0 0.0
2016-Jul-02 23:32N 09°22' W 079°53'0 0.0
2016-Jul-02 22:32N 09°22' W 079°53'0 0.0
2016-Jul-02 21:32N 09°22' W 079°53'0 0.0
2016-Jul-02 20:32N 09°22' W 079°53'0 0.0
2016-Jul-02 19:32N 09°22' W 079°53'0 0.0
2016-Jul-02 18:32N 09°22' W 079°53'0 0.0
2016-Jul-02 17:32N 09°22' W 079°53'0 0.0
2016-Jul-02 16:32N 09°22' W 079°53'0 0.0
2016-Jul-02 15:32N 09°22' W 079°53'0 0.0
2016-Jul-02 14:33N 09°22' W 079°53'2 1.9
2016-Jul-02 13:33N 09°24' W 079°54'4 4.0
2016-Jul-02 12:34N 09°28' W 079°53'8 8.2
2016-Jul-02 11:33N 09°36' W 079°52'1413.8
2016-Jul-02 10:33N 09°47' W 079°43'1414.0
2016-Jul-02 09:33N 09°49' W 079°29'1514.3
2016-Jul-02 08:32N 09°51' W 079°15'  
2016-Jun-27 00:07N 28°24' W 093°10'9914.9
2016-Jun-26 17:26N 29°21' W 094°44'910.1
2016-Jun-26 16:32N 29°27' W 094°51'1211.7
2016-Jun-26 15:31N 29°38' W 094°58'8 8.3
2016-Jun-26 14:33N 29°44' W 095°03'6 6.0
2016-Jun-26 13:33N 29°45' W 095°10'5 5.4
2016-Jun-26 12:32N 29°44' W 095°16'1 0.1
2016-Jun-26 08:08N 29°44' W 095°17'0 0.0
2016-Jun-26 06:14N 29°44' W 095°17'0 0.0
2016-Jun-26 05:32N 29°44' W 095°17'0 0.0
2016-Jun-25 18:32N 29°44' W 095°17'0 0.0
2016-Jun-25 17:14N 29°44' W 095°17'0 0.0
2016-Jun-25 16:14N 29°44' W 095°17'1 0.0
2016-Jun-24 23:21N 29°43' W 095°16'4 5.0
2016-Jun-24 22:31N 29°45' W 095°11'6 5.9
2016-Jun-24 21:33N 29°46' W 095°05'8 8.1
2016-Jun-24 20:33N 29°40' W 094°58'1312.5
2016-Jun-24 19:33N 29°29' W 094°52'13011.8
2016-Jun-24 08:32N 28°12' W 092°53'4016.1
2016-Jun-24 06:04N 27°41' W 092°24'  

Dump ship's entire track history